Data for 10/14/2014

Time Sea-Level Adjusted Pressure Absolute Pressure Temperature Relative Humidity Dew Point Precipitation   
(mb) (inHg) (mb) (inHg) (C) (F) (%) (C) (F) (mm) (in)
00:05 1020 30.12 849 25.07 7.8 46.1 61 0.8 33.4 0 0
00:10 1020 30.12 849 25.07 8 46.3 62 1.2 34.2 0 0
00:15 1020 30.12 849 25.07 7.8 46 61 0.8 33.5 0 0
00:20 1020 30.12 850 25.1 7.9 46.1 61 0.8 33.4 0 0
00:25 1020 30.12 850 25.1 7.9 46.1 63 1.2 34.2 0 0
00:30 1020 30.12 849 25.07 7.2 44.9 65 1.1 34 0 0
00:35 1020 30.12 849 25.07 6.9 44.4 65 0.7 33.2 0 0
00:40 1020 30.12 850 25.1 7.2 44.9 63 0.5 32.9 0 0
00:45 1020 30.12 850 25.1 7.5 45.4 62 0.7 33.3 0 0
00:50 1020 30.12 850 25.1 7.4 45.2 65 1.1 34 0 0
00:55 1020 30.12 850 25.1 6.6 43.8 72 1.8 35.3 0 0
01:00 1020 30.12 850 25.1 5.9 42.6 75 1.8 35.3 0 0
01:05 1020 30.12 850 25.1 5.6 42.1 76 1.6 35 0 0
01:10 1020 30.12 850 25.1 5.4 41.7 77 1.6 34.9 0 0
01:15 1020 30.12 850 25.1 5.5 41.8 76 1.5 34.8 0 0
01:20 1020 30.12 850 25.1 5.6 42.1 74 1.3 34.3 0 0
01:25 1020 30.12 850 25.1 5.6 42.1 77 2 35.5 0 0
01:30 1020 30.12 850 25.1 5.7 42.2 73 1.3 34.4 0 0
01:35 1020 30.12 850 25.1 5.9 42.6 77 2.1 35.8 0 0
01:40 1020 30.12 850 25.1 5.9 42.6 69 0.8 33.4 0 0
01:45 1020 30.12 849 25.07 6.6 43.9 67 1 33.8 0 0
01:50 1020 30.12 850 25.1 6.5 43.8 67 1 33.8 0 0
01:55 1020 30.12 850 25.1 6.3 43.4 70 1.3 34.4 0 0
02:00 1020 30.12 850 25.1 5.2 41.4 75 1.1 34 0 0
02:05 1020 30.12 849 25.07 5.2 41.4 74 1 33.7 0 0
02:10 1020 30.12 849 25.07 4.3 39.7 83 1.6 34.8 0 0
02:15 1020 30.12 849 25.07 3.7 38.7 86 1.6 34.8 0 0
02:20 1020 30.12 849 25.07 3.8 38.8 85 1.5 34.6 0 0
02:25 1020 30.12 849 25.07 3.8 38.9 84 1.4 34.5 0 0
02:30 1020 30.12 849 25.07 4.1 39.4 83 1.6 34.8 0 0
02:35 1020 30.12 849 25.07 4.5 40.1 81 1.5 34.8 0 0
02:40 1020 30.12 849 25.07 4.5 40.2 82 1.8 35.2 0 0
02:45 1020 30.12 849 25.07 4.6 40.2 82 1.8 35.3 0 0
02:50 1020 30.12 849 25.07 5.1 41.1 81 2.1 35.7 0 0
02:55 1020 30.12 849 25.07 5.5 42 77 1.9 35.4 0 0
03:00 1020 30.12 849 25.07 5.9 42.6 76 2.1 35.7 0 0
03:05 1020 30.12 849 25.07 5.8 42.4 77 2.1 35.8 0 0
03:10 1020 30.12 849 25.07 5.1 41.1 80 1.9 35.4 0 0
03:15 1020 30.12 849 25.07 5.3 41.5 77 1.6 34.8 0 0
03:20 1020 30.12 849 25.07 5.4 41.6 78 1.9 35.4 0 0
03:25 1020 30.12 849 25.07 4.9 40.8 80 1.7 35 0 0
03:30 1020 30.12 849 25.07 4 39.2 85 1.7 35 0 0
03:35 1020 30.12 849 25.07 3.5 38.2 85 1.2 34.2 0 0
03:40 1020 30.12 849 25.07 3.6 38.5 82 0.8 33.5 0 0
03:45 1020 30.12 849 25.07 4.1 39.4 81 1.2 34.1 0 0
03:50 1020 30.12 849 25.07 4.1 39.4 82 1.3 34.3 0 0
03:55 1020 30.12 849 25.07 3.7 38.7 82 0.9 33.6 0 0
04:00 1020 30.12 849 25.07 3.2 37.7 86 1 33.9 0 0
04:05 1020 30.12 849 25.07 3 37.4 86 0.8 33.5 0 0
04:10 1020 30.12 849 25.07 3.3 38 83 0.8 33.4 0 0
04:15 1020 30.12 849 25.07 3.3 37.9 84 0.8 33.4 0 0
04:20 1020 30.12 849 25.07 3.8 38.8 83 1.2 34.2 0 0
04:25 1020 30.12 849 25.07 4.2 39.6 83 1.6 34.9 0 0
04:30 1020 30.12 849 25.07 4.7 40.5 80 1.5 34.8 0 0
04:35 1020 30.12 849 25.07 5.3 41.5 79 1.9 35.5 0 0
04:40 1020 30.12 849 25.07 5.1 41.1 77 1.3 34.4 0 0
04:45 1020 30.12 849 25.07 5 41 77 1.4 34.4 0 0
04:50 1020 30.12 849 25.07 5.3 41.6 73 1 33.7 0 0
04:55 1019 30.09 849 25.07 5.7 42.3 75 1.6 34.8 0 0
05:00 1019 30.09 849 25.07 5.9 42.6 76 2 35.6 0 0
05:05 1020 30.12 849 25.07 5.4 41.7 80 2.2 36 0 0
05:10 1019 30.09 849 25.07 5.2 41.4 76 1.4 34.5 0 0
05:15 1019 30.09 849 25.07 5.4 41.8 74 1.1 34 0 0
05:20 1019 30.09 849 25.07 5.3 41.5 77 1.5 34.7 0 0
05:25 1019 30.09 849 25.07 5.3 41.5 77 1.6 34.9 0 0
05:30 1019 30.09 849 25.07 4.8 40.6 77 1.1 34.1 0 0
05:35 1019 30.09 849 25.07 4.8 40.6 75 0.7 33.3 0 0
05:40 1019 30.09 849 25.07 5 40.9 72 0.4 32.6 0 0
05:45 1019 30.09 849 25.07 5.2 41.3 72 0.4 32.8 0 0
05:50 1019 30.09 849 25.07 5.2 41.3 70 0.1 32.1 0 0
05:55 1019 30.09 849 25.07 5.5 41.9 67 -0.2 31.7 0 0
06:00 1019 30.09 849 25.07 5.5 42 67 0 32 0 0
06:05 1019 30.09 849 25.07 5.4 41.7 69 0.2 32.3 0 0
06:10 1019 30.09 849 25.07 4.9 40.7 78 1.3 34.3 0 0
06:15 1019 30.09 849 25.07 3.8 38.9 80 0.7 33.2 0 0
06:20 1019 30.09 849 25.07 4 39.2 80 0.9 33.7 0 0
06:25 1019 30.09 849 25.07 4.4 39.9 80 1.3 34.3 0 0
06:30 1019 30.09 849 25.07 4.9 40.8 79 1.5 34.7 0 0
06:35 1019 30.09 849 25.07 4.6 40.3 80 1.4 34.6 0 0
06:40 1019 30.09 849 25.07 3.6 38.4 84 1.1 34 0 0
06:45 1019 30.09 849 25.07 2.8 37 87 0.8 33.5 0 0
06:50 1019 30.09 849 25.07 3 37.4 86 0.8 33.4 0 0
06:55 1019 30.09 849 25.07 3.2 37.8 84 0.8 33.4 0 0
07:00 1019 30.09 849 25.07 3.5 38.3 83 0.8 33.5 0 0
07:05 1019 30.09 849 25.07 3.8 38.9 81 0.8 33.4 0 0
07:10 1019 30.09 849 25.07 4.1 39.5 78 0.7 33.3 0 0
07:15 1019 30.09 849 25.07 4.6 40.3 75 0.6 33.1 0 0
07:20 1019 30.09 849 25.07 4.6 40.2 76 0.7 33.3 0 0
07:25 1019 30.09 849 25.07 3.9 39.1 76 0.1 32.1 0 0
07:30 1019 30.09 848 25.04 3.7 38.6 76 -0.1 31.7 0 0
07:35 1019 30.09 848 25.04 3.9 39.1 78 0.5 32.9 0 0
07:40 1019 30.09 848 25.04 4.1 39.4 76 0.3 32.5 0 0
07:45 1019 30.09 848 25.04 3.9 39 81 0.9 33.7 0 0
07:50 1019 30.09 848 25.04 3.1 37.6 84 0.6 33.2 0 0
07:55 1019 30.09 848 25.04 4.2 39.5 70 -0.8 30.5 0 0
08:00 1019 30.09 849 25.07 5.2 41.4 69 0 32 0 0
08:05 1019 30.09 849 25.07 5.5 41.9 69 0.2 32.4 0 0
08:10 1019 30.09 849 25.07 5.6 42.1 66 -0.1 31.8 0 0
08:15 1019 30.09 849 25.07 6.1 42.9 66 0.2 32.4 0 0
08:20 1020 30.12 849 25.07 6 42.8 67 0.3 32.5 0 0
08:25 1020 30.12 849 25.07 5.6 42 69 0.2 32.4 0 0
08:30 1020 30.12 849 25.07 5.5 41.9 68 -0 32 0 0
08:35 1020 30.12 849 25.07 6.1 42.9 69 0.9 33.6 0 0
08:40 1020 30.12 849 25.07 6 42.8 75 1.9 35.4 0 0
08:45 1020 30.12 849 25.07 5.6 42.1 76 1.8 35.2 0 0
08:50 1020 30.12 849 25.07 6 42.7 74 1.6 34.9 0 0
08:55 1020 30.12 849 25.07 6.4 43.5 72 1.8 35.2 0 0
09:00 1020 30.12 849 25.07 7.2 44.9 71 2.2 36 0 0
09:05 1020 30.12 849 25.07 8.2 46.8 68 2.6 36.7 0 0
09:10 1020 30.12 849 25.07 8.5 47.3 71 3.5 38.3 0 0
09:15 1020 30.12 849 25.07 8.3 46.9 69 2.9 37.2 0 0
09:20 1020 30.12 849 25.07 8.1 46.5 72 3.2 37.8 0 0
09:25 1020 30.12 849 25.07 7.9 46.2 69 2.5 36.6 0 0
09:30 1020 30.12 849 25.07 8.2 46.7 68 2.6 36.7 0 0
09:35 1020 30.12 849 25.07 9.1 48.4 60 1.7 35.1 0 0
09:40 1020 30.12 849 25.07 10 50 59 2.5 36.5 0 0
09:45 1020 30.12 849 25.07 11.4 52.5 51 1.7 35 0 0
09:50 1020 30.12 849 25.07 12 53.6 52 2.5 36.5 0 0
09:55 1020 30.12 849 25.07 12.7 54.8 47 1.7 35 0 0
10:00 1020 30.12 849 25.07 12.5 54.6 51 2.7 36.9 0 0
10:05 1020 30.12 849 25.07 12.7 54.8 51 2.7 36.9 0 0
10:10 1020 30.12 849 25.07 13 55.4 44 1.2 34.2 0 0
10:15 1020 30.12 849 25.07 13 55.4 45 1.3 34.3 0 0
10:20 1020 30.12 849 25.07 13.3 56 47 2.5 36.4 0 0
10:25 1019 30.09 849 25.07 13.9 57 42 1.2 34.2 0 0
10:30 1019 30.09 849 25.07 14.3 57.7 41 1.4 34.5 0 0
10:35 1019 30.09 848 25.04 14.7 58.5 39 1.1 34 0 0
10:40 1019 30.09 848 25.04 15.2 59.4 40 1.7 35 0 0
10:45 1019 30.09 848 25.04 15.4 59.8 37 1.1 33.9 0 0
10:50 1019 30.09 848 25.04 15.7 60.3 32 -0.8 30.6 0 0
10:55 1019 30.09 848 25.04 16.1 61 31 -1.1 30 0 0
11:00 1019 30.09 848 25.04 16.8 62.3 30 -0.7 30.8 0 0
11:05 1019 30.09 848 25.04 17 62.6 35 1.6 34.8 0 0
11:10 1019 30.09 848 25.04 17.3 63.1 32 0.4 32.7 0 0
11:15 1019 30.09 848 25.04 17.3 63.2 31 0.2 32.3 0 0
11:20 1019 30.09 848 25.04 16.8 62.2 39 3 37.4 0 0
11:25 1019 30.09 848 25.04 17 62.6 32 0.5 32.8 0 0
11:30 1019 30.09 848 25.04 17.6 63.6 35 2.2 35.9 0 0
11:35 1019 30.09 848 25.04 17.4 63.3 35 2 35.6 0 0
11:40 1019 30.09 848 25.04 17.5 63.4 30 0 32 0 0
11:45 1019 30.09 848 25.04 17 62.7 35 1.7 35.1 0 0
11:50 1019 30.09 848 25.04 16.7 62 37 1.9 35.5 0 0
11:55 1019 30.09 848 25.04 16.7 62 39 2.8 37.1 0 0
12:00 1019 30.09 848 25.04 16.6 61.9 40 3.1 37.6 0 0
12:05 1018 30.06 848 25.04 16.5 61.7 40 3 37.5 0 0
12:10 1018 30.06 848 25.04 16.6 61.8 37 2.1 35.7 0 0
12:15 1018 30.06 847 25.01 16.5 61.8 37 2.1 35.7 0 0
12:20 1018 30.06 848 25.04 16.9 62.4 33 0.5 33 0 0
12:25 1018 30.06 847 25.01 17.4 63.3 36 2.1 35.8 0 0
12:30 1018 30.06 847 25.01 17.3 63.2 38 2.8 37.1 0 0
12:35 1018 30.06 847 25.01 17.3 63.1 36 2 35.7 0 0
12:40 1018 30.06 847 25.01 17.4 63.3 36 2.2 36 0 0
12:45 1018 30.06 847 25.01 17.5 63.5 38 3 37.4 0 0
12:50 1018 30.06 847 25.01 17.6 63.6 30 -0.2 31.6 0 0
12:55 1018 30.06 847 25.01 18 64.3 29 -0 32 0 0
13:00 1018 30.06 847 25.01 18.3 64.9 29 0.2 32.4 0 0
13:05 1018 30.06 847 25.01 18.7 65.7 27 -0.4 31.3 0 0
13:10 1018 30.06 847 25.01 18.7 65.6 31 1.5 34.8 0 0
13:15 1018 30.06 847 25.01 19 66.1 30 1.2 34.1 0 0
13:20 1018 30.06 847 25.01 19.1 66.5 32 2.1 35.7 0 0
13:25 1017 30.03 847 25.01 19.4 66.9 31 2.2 35.9 0 0
13:30 1017 30.03 847 25.01 19.6 67.2 27 0.4 32.7 0 0
13:35 1017 30.03 847 25.01 19.3 66.8 28 0.6 33.1 0 0
13:40 1017 30.03 847 25.01 19.1 66.3 29 1 33.8 0 0
13:45 1017 30.03 846 24.98 19.1 66.3 31 1.6 34.9 0 0
13:50 1017 30.03 846 24.98 18.8 65.9 30 1.2 34.2 0 0
13:55 1017 30.03 846 24.98 18.9 66 32 2.2 35.9 0 0
14:00 1017 30.03 846 24.98 19.3 66.7 29 0.8 33.4 0 0
14:05 1017 30.03 846 24.98 19.5 67.1 28 0.8 33.5 0 0
14:10 1017 30.03 846 24.98 19.3 66.7 28 0.4 32.7 0 0
14:15 1017 30.03 846 24.98 19.3 66.7 26 -0.6 31 0 0
14:20 1017 30.03 846 24.98 19.6 67.3 29 1.4 34.5 0 0
14:25 1017 30.03 846 24.98 19.7 67.4 28 0.8 33.5 0 0
14:30 1017 30.03 846 24.98 19.5 67.1 28 0.6 33.1 0 0
14:35 1017 30.03 846 24.98 19.6 67.3 27 0.3 32.5 0 0
14:40 1017 30.03 846 24.98 19.7 67.4 29 1.4 34.4 0 0
14:45 1017 30.03 846 24.98 19.6 67.4 27 0.5 32.9 0 0
14:50 1017 30.03 846 24.98 19.9 67.8 27 0.3 32.6 0 0
14:55 1017 30.03 846 24.98 20.2 68.4 28 1.5 34.7 0 0
15:00 1017 30.03 846 24.98 20.4 68.8 21 -2.7 27.2 0 0
15:05 1016 30 846 24.98 20.1 68.1 26 0.1 32.2 0 0
15:10 1016 30 846 24.98 20.2 68.4 27 0.7 33.2 0 0
15:15 1016 30 845 24.95 20.4 68.7 25 -0.2 31.7 0 0
15:20 1016 30 845 24.95 20.4 68.8 27 0.8 33.5 0 0
15:25 1016 30 845 24.95 20.2 68.4 28 1.1 34 0 0
15:30 1016 30 845 24.95 19.9 67.8 27 0.5 33 0 0
15:35 1016 30 845 24.95 19.9 67.7 26 -0.3 31.5 0 0
15:40 1016 30 845 24.95 19.7 67.4 27 0.3 32.5 0 0
15:45 1016 30 845 24.95 19.5 67.1 28 0.8 33.5 0 0
15:50 1016 30 845 24.95 19.5 67.1 26 -0.4 31.3 0 0
15:55 1016 30 845 24.95 19.5 67 24 -1.2 29.8 0 0
16:00 1016 30 845 24.95 19.6 67.4 27 0.3 32.5 0 0
16:05 1016 30 845 24.95 19.9 67.8 28 1 33.8 0 0
16:10 1016 30 845 24.95 20.1 68.1 25 -0.7 30.8 0 0
16:15 1016 30 845 24.95 20.2 68.3 26 0.3 32.6 0 0
16:20 1016 30 845 24.95 20.2 68.3 24 -0.6 30.9 0 0
16:25 1016 30 845 24.95 19.6 67.4 25 -0.7 30.7 0 0
16:30 1016 30 845 24.95 19.3 66.8 28 0.5 32.9 0 0
16:35 1016 30 845 24.95 19.2 66.6 26 -0.3 31.4 0 0
16:40 1016 30 845 24.95 19.4 66.9 28 0.6 33.1 0 0
16:45 1016 30 845 24.95 19.3 66.8 26 -0.4 31.2 0 0
16:50 1015 29.97 845 24.95 19.4 67 28 0.8 33.4 0 0
16:55 1015 29.97 845 24.95 19.2 66.5 26 -0.9 30.4 0 0
17:00 1015 29.97 845 24.95 19 66.2 27 -0.4 31.4 0 0
17:05 1015 29.97 845 24.95 18.8 65.8 31 1.3 34.4 0 0
17:10 1015 29.97 844 24.92 18.7 65.7 31 1.3 34.3 0 0
17:15 1015 29.97 844 24.92 18.8 65.8 29 0.7 33.3 0 0
17:20 1015 29.97 844 24.92 18.8 65.9 28 0.1 32.2 0 0
17:25 1015 29.97 844 24.92 18.5 65.4 27 -0.8 30.6 0 0
17:30 1015 29.97 844 24.92 18.5 65.3 28 -0.2 31.7 0 0
17:35 1015 29.97 844 24.92 18.1 64.6 30 0.3 32.5 0 0
17:40 1015 29.97 844 24.92 18.1 64.5 29 -0.3 31.5 0 0
17:45 1015 29.97 844 24.92 17.8 64 29 -0.2 31.6 0 0
17:50 1015 29.97 844 24.92 17.7 63.8 28 -0.8 30.6 0 0
17:55 1015 29.97 844 24.92 17.6 63.7 31 0.3 32.6 0 0
18:00 1015 29.97 844 24.92 16.8 62.3 31 -0.3 31.4 0 0
18:05 1015 29.97 844 24.92 16.6 62 30 -1 30.2 0 0
18:10 1015 29.97 844 24.92 16.3 61.4 31 -0.7 30.8 0 0
18:15 1015 29.97 844 24.92 15.9 60.5 32 -0.6 30.9 0 0
18:20 1015 29.97 844 24.92 15.1 59.2 33 -0.9 30.4 0 0
18:25 1015 29.97 844 24.92 14.6 58.3 35 -0.7 30.7 0 0
18:30 1015 29.97 844 24.92 14.8 58.6 33 -1.3 29.7 0 0
18:35 1015 29.97 844 24.92 15.4 59.7 31 -1.7 28.9 0 0
18:40 1015 29.97 844 24.92 15.6 60 31 -1.4 29.5 0 0
18:45 1015 29.97 844 24.92 15.3 59.5 31 -1.8 28.8 0 0
18:50 1015 29.97 844 24.92 14.9 58.8 31 -1.9 28.6 0 0
18:55 1015 29.97 844 24.92 15.1 59.2 31 -2 28.4 0 0
19:00 1015 29.97 844 24.92 15.4 59.7 29 -2.3 27.9 0 0
19:05 1015 29.97 844 24.92 15.2 59.3 31 -1.5 29.2 0 0
19:10 1015 29.97 844 24.92 14.9 58.9 28 -3.6 25.6 0 0
19:15 1015 29.97 844 24.92 15.2 59.4 30 -2.1 28.2 0 0
19:20 1015 29.97 844 24.92 14.7 58.5 31 -2 28.4 0 0
19:25 1015 29.97 844 24.92 14.3 57.7 33 -1.7 29 0 0
19:30 1015 29.97 844 24.92 13.9 57 31 -2.8 27 0 0
19:35 1015 29.97 844 24.92 14.5 58.1 29 -3 26.5 0 0
19:40 1015 29.97 844 24.92 14.8 58.6 28 -3.3 26 0 0
19:45 1015 29.97 844 24.92 14.5 58.1 30 -2.7 27.1 0 0
19:50 1015 29.97 844 24.92 14.3 57.7 30 -3 26.7 0 0
19:55 1015 29.97 844 24.92 14.5 58.1 29 -3.1 26.4 0 0
20:00 1015 29.97 844 24.92 14.4 58 31 -2.4 27.6 0 0
20:05 1015 29.97 844 24.92 14.2 57.5 30 -3.1 26.3 0 0
20:10 1015 29.97 844 24.92 14.3 57.8 29 -3.2 26.3 0 0
20:15 1015 29.97 844 24.92 14.6 58.2 29 -3.3 26 0 0
20:20 1015 29.97 844 24.92 14.6 58.4 30 -2.9 26.8 0 0
20:25 1015 29.97 844 24.92 14.3 57.7 31 -2.7 27.1 0 0
20:30 1015 29.97 844 24.92 14 57.2 32 -2.5 27.5 0 0
20:35 1015 29.97 845 24.95 13.6 56.4 33 -2.4 27.6 0 0
20:40 1015 29.97 844 24.92 13.5 56.3 33 -2.5 27.4 0 0
20:45 1015 29.97 844 24.92 13.5 56.3 34 -1.9 28.5 0 0
20:50 1015 29.97 844 24.92 13.4 56 31 -3.4 25.8 0 0
20:55 1015 29.97 844 24.92 14.4 57.9 29 -3.3 26.1 0 0
21:00 1015 29.97 844 24.92 14.6 58.4 31 -2.3 27.8 0 0
21:05 1015 29.97 844 24.92 13.8 56.8 35 -1.4 29.4 0 0
21:10 1015 29.97 844 24.92 13.5 56.2 32 -2.9 26.8 0 0
21:15 1015 29.97 844 24.92 13.5 56.3 33 -2.4 27.6 0 0
21:20 1015 29.97 844 24.92 13.2 55.7 35 -2.1 28.2 0 0
21:25 1015 29.97 844 24.92 12.8 55 32 -3.5 25.8 0 0
21:30 1015 29.97 844 24.92 13 55.4 35 -2 28.4 0 0
21:35 1015 29.97 844 24.92 12.5 54.5 33 -3.2 26.3 0 0
21:40 1015 29.97 844 24.92 13.7 56.6 31 -3.1 26.5 0 0
21:45 1015 29.97 844 24.92 14.4 58 33 -1.4 29.4 0 0
21:50 1015 29.97 844 24.92 13 55.4 35 -1.9 28.6 0 0
21:55 1015 29.97 844 24.92 12.8 55 36 -1.9 28.5 0 0
22:00 1015 29.97 844 24.92 12.8 55 34 -2.4 27.6 0 0
22:05 1015 29.97 844 24.92 13.2 55.8 35 -1.9 28.5 0 0
22:10 1015 29.97 844 24.92 13 55.3 34 -2.5 27.5 0 0
22:15 1015 29.97 844 24.92 12.8 55 35 -2.1 28.3 0 0
22:20 1015 29.97 844 24.92 12.4 54.2 35 -2.5 27.5 0 0
22:25 1015 29.97 844 24.92 12.6 54.6 37 -1.8 28.7 0 0
22:30 1015 29.97 844 24.92 12.5 54.5 33 -3.4 25.9 0 0
22:35 1015 29.97 844 24.92 12.6 54.7 37 -1.8 28.7 0 0
22:40 1015 29.97 844 24.92 12.3 54.1 33 -3.4 25.9 0 0
22:45 1015 29.97 844 24.92 12.4 54.2 38 -1.6 29.2 0 0
22:50 1015 29.97 844 24.92 12 53.5 33 -3.8 25.2 0 0
22:55 1015 29.97 844 24.92 12.7 54.9 41 -0.3 31.5 0 0
23:00 1015 29.97 844 24.92 10.5 50.8 42 -2 28.5 0 0
23:05 1015 29.97 844 24.92 10.4 50.8 40 -2.4 27.6 0 0
23:10 1015 29.97 844 24.92 11.6 53 33 -3.9 25 0 0
23:15 1015 29.97 844 24.92 13.3 55.9 31 -3.6 25.6 0 0
23:20 1015 29.97 844 24.92 13.1 55.5 37 -1.3 29.6 0 0
23:25 1015 29.97 844 24.92 11.4 52.4 34 -4 24.8 0 0
23:30 1015 29.97 844 24.92 12.5 54.5 32 -3.6 25.5 0 0
23:35 1015 29.97 844 24.92 12.6 54.7 37 -1.5 29.3 0 0
23:40 1015 29.97 844 24.92 11.5 52.7 40 -1.6 29.1 0 0
23:45 1015 29.97 844 24.92 11.3 52.3 33 -4.4 24.2 0 0
23:50 1014 29.94 844 24.92 11.6 52.9 37 -2.7 27.2 0 0
23:55 1014 29.94 844 24.92 12.1 53.8 33 -3.7 25.4 0 0
24:00 1014 29.94 844 24.92 12.5 54.4 39 -1.1 30.1 0 0